sensor_id;sensor_type;location;lat;lon;timestamp;pressure;altitude;pressure_sealevel;temperature;humidity
60820;BME280;46641;48.904;9.126;2023-03-21T00:02:19;98821.06;;;16.03;49.81
60820;BME280;46641;48.904;9.126;2023-03-21T00:07:09;98819.25;;;16.04;50.19
60820;BME280;46641;48.904;9.126;2023-03-21T00:12:00;98818.78;;;16.00;50.10
60820;BME280;46641;48.904;9.126;2023-03-21T00:16:50;98820.75;;;15.98;50.21
60820;BME280;46641;48.904;9.126;2023-03-21T00:21:43;98818.94;;;15.99;50.25
60820;BME280;46641;48.904;9.126;2023-03-21T00:26:34;98814.50;;;15.99;50.19
60820;BME280;46641;48.904;9.126;2023-03-21T00:31:25;98812.56;;;15.93;50.26
60820;BME280;46641;48.904;9.126;2023-03-21T00:36:15;98800.53;;;15.91;50.35
60820;BME280;46641;48.904;9.126;2023-03-21T00:41:09;98797.22;;;15.88;50.31
60820;BME280;46641;48.904;9.126;2023-03-21T00:46:00;98787.66;;;15.87;50.33
60820;BME280;46641;48.904;9.126;2023-03-21T00:50:53;98781.72;;;15.85;50.35
60820;BME280;46641;48.904;9.126;2023-03-21T00:55:44;98775.81;;;15.83;50.48
60820;BME280;46641;48.904;9.126;2023-03-21T01:00:34;98775.16;;;15.81;50.46
60820;BME280;46641;48.904;9.126;2023-03-21T01:05:29;98784.09;;;15.80;50.59
60820;BME280;46641;48.904;9.126;2023-03-21T01:10:44;98779.78;;;15.79;50.49
60820;BME280;46641;48.904;9.126;2023-03-21T01:15:36;98779.16;;;15.77;50.72
60820;BME280;46641;48.904;9.126;2023-03-21T01:20:31;98774.88;;;15.76;50.64
60820;BME280;46641;48.904;9.126;2023-03-21T01:25:21;98767.94;;;15.75;50.47
60820;BME280;46641;48.904;9.126;2023-03-21T01:30:12;98757.09;;;15.70;50.69
60820;BME280;46641;48.904;9.126;2023-03-21T01:35:03;98757.47;;;15.67;50.83
60820;BME280;46641;48.904;9.126;2023-03-21T01:39:53;98754.81;;;15.67;50.80
60820;BME280;46641;48.904;9.126;2023-03-21T01:44:57;98755.44;;;15.69;50.96
60820;BME280;46641;48.904;9.126;2023-03-21T01:49:50;98752.00;;;15.69;50.81
60820;BME280;46641;48.904;9.126;2023-03-21T01:54:42;98744.56;;;15.64;50.95
60820;BME280;46641;48.904;9.126;2023-03-21T01:59:37;98747.22;;;15.64;50.94
60820;BME280;46641;48.904;9.126;2023-03-21T02:04:29;98747.84;;;15.66;50.81
60820;BME280;46641;48.904;9.126;2023-03-21T02:09:23;98741.13;;;15.63;50.84
60820;BME280;46641;48.904;9.126;2023-03-21T02:14:17;98735.00;;;15.63;50.73
60820;BME280;46641;48.904;9.126;2023-03-21T02:39:49;98721.22;;;15.53;50.62
60820;BME280;46641;48.904;9.126;2023-03-21T02:44:49;98715.94;;;15.53;50.84
60820;BME280;46641;48.904;9.126;2023-03-21T02:54:42;98719.75;;;15.50;50.97
60820;BME280;46641;48.904;9.126;2023-03-21T02:59:34;98712.34;;;15.46;50.88
60820;BME280;46641;48.904;9.126;2023-03-21T03:04:27;98716.81;;;15.45;51.17
60820;BME280;46641;48.904;9.126;2023-03-21T03:20:41;98715.69;;;15.39;50.97
60820;BME280;46641;48.904;9.126;2023-03-21T03:25:43;98709.44;;;15.40;51.18
60820;BME280;46641;48.904;9.126;2023-03-21T03:30:37;98706.78;;;15.40;51.07
60820;BME280;46641;48.904;9.126;2023-03-21T03:35:28;98713.38;;;15.36;50.96
60820;BME280;46641;48.904;9.126;2023-03-21T03:40:34;98705.47;;;15.36;51.46
60820;BME280;46641;48.904;9.126;2023-03-21T03:45:33;98706.47;;;15.35;51.03
60820;BME280;46641;48.904;9.126;2023-03-21T03:50:31;98707.47;;;15.34;50.94
60820;BME280;46641;48.904;9.126;2023-03-21T03:55:24;98699.72;;;15.33;51.23
60820;BME280;46641;48.904;9.126;2023-03-21T04:00:17;98696.28;;;15.32;51.46
60820;BME280;46641;48.904;9.126;2023-03-21T04:05:08;98694.66;;;15.31;51.29
60820;BME280;46641;48.904;9.126;2023-03-21T04:09:58;98690.34;;;15.30;51.18
60820;BME280;46641;48.904;9.126;2023-03-21T04:14:49;98697.44;;;15.30;51.23
60820;BME280;46641;48.904;9.126;2023-03-21T04:19:39;98694.16;;;15.28;51.28
60820;BME280;46641;48.904;9.126;2023-03-21T04:24:29;98690.69;;;15.27;51.28
60820;BME280;46641;48.904;9.126;2023-03-21T04:29:22;98689.88;;;15.27;51.00
60820;BME280;46641;48.904;9.126;2023-03-21T04:34:13;98689.41;;;15.23;51.26
60820;BME280;46641;48.904;9.126;2023-03-21T04:39:04;98688.78;;;15.21;51.40
60820;BME280;46641;48.904;9.126;2023-03-21T04:44:01;98680.00;;;15.20;51.28
60820;BME280;46641;48.904;9.126;2023-03-21T04:48:51;98689.13;;;15.18;51.54
60820;BME280;46641;48.904;9.126;2023-03-21T04:53:41;98681.34;;;15.16;51.38
60820;BME280;46641;48.904;9.126;2023-03-21T04:58:34;98674.44;;;15.15;51.38
60820;BME280;46641;48.904;9.126;2023-03-21T05:03:25;98677.25;;;15.14;51.53
60820;BME280;46641;48.904;9.126;2023-03-21T05:08:17;98675.13;;;15.09;51.56
60820;BME280;46641;48.904;9.126;2023-03-21T05:13:08;98671.03;;;15.07;51.43
60820;BME280;46641;48.904;9.126;2023-03-21T05:17:58;98684.38;;;15.05;51.64
60820;BME280;46641;48.904;9.126;2023-03-21T05:23:00;98683.72;;;15.03;51.58
60820;BME280;46641;48.904;9.126;2023-03-21T05:27:50;98680.28;;;15.03;51.67
60820;BME280;46641;48.904;9.126;2023-03-21T05:32:43;98682.25;;;15.01;51.65
60820;BME280;46641;48.904;9.126;2023-03-21T05:37:33;98684.25;;;14.99;51.82
60820;BME280;46641;48.904;9.126;2023-03-21T05:42:24;98685.88;;;15.00;51.71
60820;BME280;46641;48.904;9.126;2023-03-21T05:47:16;98686.22;;;14.96;51.64
60820;BME280;46641;48.904;9.126;2023-03-21T05:52:06;98692.50;;;14.95;51.68
60820;BME280;46641;48.904;9.126;2023-03-21T05:56:57;98682.31;;;14.92;51.84
60820;BME280;46641;48.904;9.126;2023-03-21T06:01:47;98678.72;;;14.85;51.75
60820;BME280;46641;48.904;9.126;2023-03-21T06:06:37;98691.09;;;14.68;52.06
60820;BME280;46641;48.904;9.126;2023-03-21T06:11:30;98699.34;;;14.65;52.25
60820;BME280;46641;48.904;9.126;2023-03-21T06:16:21;98694.56;;;14.69;51.87
60820;BME280;46641;48.904;9.126;2023-03-21T06:21:11;98692.56;;;14.71;52.08
60820;BME280;46641;48.904;9.126;2023-03-21T06:26:02;98698.31;;;14.75;51.73
60820;BME280;46641;48.904;9.126;2023-03-21T06:30:53;98697.50;;;14.74;51.89
60820;BME280;46641;48.904;9.126;2023-03-21T06:35:43;98691.91;;;14.77;51.68
60820;BME280;46641;48.904;9.126;2023-03-21T06:40:34;98689.94;;;14.79;51.76
60820;BME280;46641;48.904;9.126;2023-03-21T06:45:24;98685.63;;;14.78;51.57
60820;BME280;46641;48.904;9.126;2023-03-21T06:50:14;98688.59;;;14.75;51.95
60820;BME280;46641;48.904;9.126;2023-03-21T06:55:05;98683.50;;;14.73;51.90
60820;BME280;46641;48.904;9.126;2023-03-21T06:59:55;98684.34;;;14.74;51.91
60820;BME280;46641;48.904;9.126;2023-03-21T07:04:46;98692.25;;;14.74;51.97
60820;BME280;46641;48.904;9.126;2023-03-21T07:09:36;98682.03;;;14.71;51.88
60820;BME280;46641;48.904;9.126;2023-03-21T07:14:27;98680.22;;;14.71;51.83
60820;BME280;46641;48.904;9.126;2023-03-21T07:19:17;98684.50;;;14.72;51.84
60820;BME280;46641;48.904;9.126;2023-03-21T07:24:07;98685.66;;;14.70;52.01
60820;BME280;46641;48.904;9.126;2023-03-21T07:28:58;98691.75;;;14.70;52.08
60820;BME280;46641;48.904;9.126;2023-03-21T07:33:48;98681.22;;;14.70;52.09
60820;BME280;46641;48.904;9.126;2023-03-21T07:38:38;98690.75;;;14.71;51.92
60820;BME280;46641;48.904;9.126;2023-03-21T07:43:30;98690.13;;;14.69;51.90
60820;BME280;46641;48.904;9.126;2023-03-21T07:48:20;98696.22;;;14.70;52.08
60820;BME280;46641;48.904;9.126;2023-03-21T07:53:10;98689.94;;;14.71;51.89
60820;BME280;46641;48.904;9.126;2023-03-21T07:58:02;98690.28;;;14.68;52.26
60820;BME280;46641;48.904;9.126;2023-03-21T08:02:55;98683.19;;;14.68;52.13
60820;BME280;46641;48.904;9.126;2023-03-21T08:07:45;98691.31;;;14.10;53.57
60820;BME280;46641;48.904;9.126;2023-03-21T08:12:36;98689.50;;;14.43;52.49
60820;BME280;46641;48.904;9.126;2023-03-21T08:17:26;98680.41;;;14.62;52.36
60820;BME280;46641;48.904;9.126;2023-03-21T08:22:17;98681.88;;;14.72;52.05
60820;BME280;46641;48.904;9.126;2023-03-21T08:27:07;98675.09;;;14.78;51.96
60820;BME280;46641;48.904;9.126;2023-03-21T08:31:58;98672.13;;;14.81;51.76
60820;BME280;46641;48.904;9.126;2023-03-21T08:36:48;98678.53;;;14.87;51.95
60820;BME280;46641;48.904;9.126;2023-03-21T08:41:38;98668.47;;;14.90;51.71
60820;BME280;46641;48.904;9.126;2023-03-21T08:46:29;98668.78;;;14.95;51.73
60820;BME280;46641;48.904;9.126;2023-03-21T08:51:19;98660.34;;;15.00;51.64
60820;BME280;46641;48.904;9.126;2023-03-21T08:56:10;98656.38;;;15.04;51.36
60820;BME280;46641;48.904;9.126;2023-03-21T09:01:01;98659.31;;;15.09;51.48
60820;BME280;46641;48.904;9.126;2023-03-21T09:05:53;98646.06;;;15.17;51.52
60820;BME280;46641;48.904;9.126;2023-03-21T09:10:43;98647.34;;;15.30;51.09
60820;BME280;46641;48.904;9.126;2023-03-21T09:15:33;98647.81;;;15.33;51.04
60820;BME280;46641;48.904;9.126;2023-03-21T09:20:25;98645.47;;;15.38;51.61
60820;BME280;46641;48.904;9.126;2023-03-21T09:25:19;98656.69;;;15.40;52.02
60820;BME280;46641;48.904;9.126;2023-03-21T09:30:15;98653.97;;;15.49;51.95
60820;BME280;46641;48.904;9.126;2023-03-21T09:35:06;98654.91;;;15.56;52.39
60820;BME280;46641;48.904;9.126;2023-03-21T09:39:58;98651.91;;;15.67;52.26
60820;BME280;46641;48.904;9.126;2023-03-21T09:45:22;98648.84;;;15.78;51.09
60820;BME280;46641;48.904;9.126;2023-03-21T09:50:20;98641.84;;;15.85;51.56
60820;BME280;46641;48.904;9.126;2023-03-21T09:55:28;98643.44;;;15.95;51.65
60820;BME280;46641;48.904;9.126;2023-03-21T10:00:27;98641.00;;;16.08;52.17
60820;BME280;46641;48.904;9.126;2023-03-21T10:05:25;98640.94;;;16.16;52.12
60820;BME280;46641;48.904;9.126;2023-03-21T10:10:20;98628.09;;;16.28;52.64
60820;BME280;46641;48.904;9.126;2023-03-21T10:15:18;98632.03;;;16.47;52.08
60820;BME280;46641;48.904;9.126;2023-03-21T10:20:23;98621.00;;;16.58;52.27
60820;BME280;46641;48.904;9.126;2023-03-21T10:25:18;98613.63;;;16.68;51.94
60820;BME280;46641;48.904;9.126;2023-03-21T10:30:19;98609.69;;;16.79;51.31
60820;BME280;46641;48.904;9.126;2023-03-21T10:35:12;98602.13;;;16.91;52.02
60820;BME280;46641;48.904;9.126;2023-03-21T10:40:03;98599.72;;;16.96;52.18
60820;BME280;46641;48.904;9.126;2023-03-21T10:44:57;98590.13;;;17.10;52.04
60820;BME280;46641;48.904;9.126;2023-03-21T10:49:47;98590.72;;;17.26;51.45
60820;BME280;46641;48.904;9.126;2023-03-21T10:54:38;98589.59;;;17.36;51.95
60820;BME280;46641;48.904;9.126;2023-03-21T10:59:37;98586.81;;;17.44;50.95
60820;BME280;46641;48.904;9.126;2023-03-21T11:04:29;98594.63;;;17.52;52.29
60820;BME280;46641;48.904;9.126;2023-03-21T11:09:22;98582.44;;;17.58;52.56
60820;BME280;46641;48.904;9.126;2023-03-21T11:14:35;98579.66;;;17.66;51.81
60820;BME280;46641;48.904;9.126;2023-03-21T11:19:31;98571.56;;;17.74;51.72
60820;BME280;46641;48.904;9.126;2023-03-21T11:24:26;98580.63;;;17.80;52.66
60820;BME280;46641;48.904;9.126;2023-03-21T11:34:24;98568.94;;;17.95;51.26
60820;BME280;46641;48.904;9.126;2023-03-21T11:39:32;98560.22;;;18.02;51.38
60820;BME280;46641;48.904;9.126;2023-03-21T11:44:34;98561.28;;;18.07;51.65
60820;BME280;46641;48.904;9.126;2023-03-21T11:49:30;98551.53;;;18.14;51.60
60820;BME280;46641;48.904;9.126;2023-03-21T11:54:43;98541.78;;;18.21;50.20
60820;BME280;46641;48.904;9.126;2023-03-21T12:09:46;98529.69;;;17.78;44.79
60820;BME280;46641;48.904;9.126;2023-03-21T12:25:21;98511.56;;;18.09;46.69
60820;BME280;46641;48.904;9.126;2023-03-21T12:30:43;98507.38;;;18.28;47.20
60820;BME280;46641;48.904;9.126;2023-03-21T12:35:51;98496.00;;;18.41;46.31
60820;BME280;46641;48.904;9.126;2023-03-21T12:41:16;98487.28;;;18.47;46.72
60820;BME280;46641;48.904;9.126;2023-03-21T12:51:12;98481.78;;;18.55;47.65
60820;BME280;46641;48.904;9.126;2023-03-21T12:56:07;98476.28;;;18.57;48.08
60820;BME280;46641;48.904;9.126;2023-03-21T13:01:00;98474.25;;;18.59;48.27
60820;BME280;46641;48.904;9.126;2023-03-21T13:05:55;98469.38;;;18.62;48.31
60820;BME280;46641;48.904;9.126;2023-03-21T13:10:47;98473.25;;;18.66;48.33
60820;BME280;46641;48.904;9.126;2023-03-21T13:15:46;98470.00;;;18.71;47.90
60820;BME280;46641;48.904;9.126;2023-03-21T13:21:00;98462.50;;;18.75;47.75
60820;BME280;46641;48.904;9.126;2023-03-21T13:25:54;98463.53;;;18.80;47.91
60820;BME280;46641;48.904;9.126;2023-03-21T13:30:46;98462.94;;;18.85;48.37
60820;BME280;46641;48.904;9.126;2023-03-21T13:35:43;98452.94;;;18.87;48.16
60820;BME280;46641;48.904;9.126;2023-03-21T13:41:07;98453.56;;;18.89;48.29
60820;BME280;46641;48.904;9.126;2023-03-21T13:46:07;98451.09;;;18.94;47.44
60820;BME280;46641;48.904;9.126;2023-03-21T13:51:00;98438.47;;;18.96;48.51
60820;BME280;46641;48.904;9.126;2023-03-21T13:56:01;98433.78;;;18.98;47.64
60820;BME280;46641;48.904;9.126;2023-03-21T14:01:12;98423.75;;;19.00;47.92
60820;BME280;46641;48.904;9.126;2023-03-21T14:06:03;98412.75;;;19.03;48.47
60820;BME280;46641;48.904;9.126;2023-03-21T14:10:56;98409.91;;;19.05;48.17
60820;BME280;46641;48.904;9.126;2023-03-21T14:16:10;98409.28;;;19.09;46.47
60820;BME280;46641;48.904;9.126;2023-03-21T14:21:01;98413.16;;;19.13;47.62
60820;BME280;46641;48.904;9.126;2023-03-21T14:25:52;98408.66;;;19.14;47.50
60820;BME280;46641;48.904;9.126;2023-03-21T14:30:43;98423.75;;;19.13;47.51
60820;BME280;46641;48.904;9.126;2023-03-21T14:35:34;98411.75;;;19.11;47.92
60820;BME280;46641;48.904;9.126;2023-03-21T14:40:26;98423.75;;;19.13;47.36
60820;BME280;46641;48.904;9.126;2023-03-21T14:50:09;98402.13;;;19.17;47.54
60820;BME280;46641;48.904;9.126;2023-03-21T14:55:02;98403.78;;;19.18;46.99
60820;BME280;46641;48.904;9.126;2023-03-21T14:59:57;98411.53;;;19.19;47.26
60820;BME280;46641;48.904;9.126;2023-03-21T15:04:50;98405.19;;;19.20;46.29
60820;BME280;46641;48.904;9.126;2023-03-21T15:09:53;98405.81;;;19.15;46.12
60820;BME280;46641;48.904;9.126;2023-03-21T15:14:44;98392.53;;;19.15;46.78
60820;BME280;46641;48.904;9.126;2023-03-21T15:19:37;98394.97;;;19.17;46.67
60820;BME280;46641;48.904;9.126;2023-03-21T15:24:31;98389.91;;;19.15;46.83
60820;BME280;46641;48.904;9.126;2023-03-21T15:29:23;98394.97;;;19.17;46.39
60820;BME280;46641;48.904;9.126;2023-03-21T15:34:26;98397.84;;;19.15;45.93
60820;BME280;46641;48.904;9.126;2023-03-21T15:39:18;98406.22;;;19.12;47.41
60820;BME280;46641;48.904;9.126;2023-03-21T15:44:12;98412.09;;;18.00;44.66
60820;BME280;46641;48.904;9.126;2023-03-21T15:54:11;98397.63;;;18.03;44.52
60820;BME280;46641;48.904;9.126;2023-03-21T15:59:03;98394.00;;;18.10;44.74
60820;BME280;46641;48.904;9.126;2023-03-21T16:03:57;98398.50;;;18.16;44.96
60820;BME280;46641;48.904;9.126;2023-03-21T16:08:53;98400.53;;;18.14;43.74
60820;BME280;46641;48.904;9.126;2023-03-21T16:13:53;98392.97;;;18.05;44.37
60820;BME280;46641;48.904;9.126;2023-03-21T16:18:43;98395.84;;;18.16;44.17
60820;BME280;46641;48.904;9.126;2023-03-21T16:23:34;98395.00;;;18.09;44.27
60820;BME280;46641;48.904;9.126;2023-03-21T16:28:24;98382.75;;;17.95;44.42
60820;BME280;46641;48.904;9.126;2023-03-21T16:33:15;98388.88;;;18.02;44.05
60820;BME280;46641;48.904;9.126;2023-03-21T16:38:05;98393.94;;;17.56;46.31
60820;BME280;46641;48.904;9.126;2023-03-21T16:42:55;98384.25;;;18.17;45.21
60820;BME280;46641;48.904;9.126;2023-03-21T16:47:46;98391.06;;;18.47;45.00
60820;BME280;46641;48.904;9.126;2023-03-21T16:52:36;98403.31;;;18.61;44.64
60820;BME280;46641;48.904;9.126;2023-03-21T16:57:29;98398.41;;;18.64;44.54
60820;BME280;46641;48.904;9.126;2023-03-21T17:02:20;98390.28;;;18.66;44.69
60820;BME280;46641;48.904;9.126;2023-03-21T17:07:12;98392.28;;;18.64;44.42
60820;BME280;46641;48.904;9.126;2023-03-21T17:12:12;98405.75;;;18.62;44.01
60820;BME280;46641;48.904;9.126;2023-03-21T17:17:11;98401.00;;;18.38;44.03
60820;BME280;46641;48.904;9.126;2023-03-21T17:22:02;98396.66;;;18.10;44.35
60820;BME280;46641;48.904;9.126;2023-03-21T17:26:52;98401.97;;;18.17;44.53
60820;BME280;46641;48.904;9.126;2023-03-21T17:31:43;98408.94;;;17.77;45.02
60820;BME280;46641;48.904;9.126;2023-03-21T17:36:38;98404.81;;;18.15;45.09
60820;BME280;46641;48.904;9.126;2023-03-21T17:41:29;98408.13;;;18.31;44.63
60820;BME280;46641;48.904;9.126;2023-03-21T17:46:21;98409.78;;;18.38;44.65
60820;BME280;46641;48.904;9.126;2023-03-21T17:51:12;98402.63;;;18.39;44.95
60820;BME280;46641;48.904;9.126;2023-03-21T17:56:05;98401.00;;;18.38;45.05
60820;BME280;46641;48.904;9.126;2023-03-21T18:00:56;98408.16;;;18.37;44.89
60820;BME280;46641;48.904;9.126;2023-03-21T18:05:46;98420.78;;;18.35;45.69
60820;BME280;46641;48.904;9.126;2023-03-21T18:10:37;98415.06;;;18.32;46.23
60820;BME280;46641;48.904;9.126;2023-03-21T18:15:27;98408.13;;;18.31;46.21
60820;BME280;46641;48.904;9.126;2023-03-21T18:20:21;98406.91;;;18.27;46.68
60820;BME280;46641;48.904;9.126;2023-03-21T18:25:13;98399.13;;;18.25;46.71
60820;BME280;46641;48.904;9.126;2023-03-21T18:30:05;98395.06;;;18.22;46.64
60820;BME280;46641;48.904;9.126;2023-03-21T18:34:56;98384.03;;;18.19;46.51
60820;BME280;46641;48.904;9.126;2023-03-21T18:39:49;98391.19;;;18.18;46.60
60820;BME280;46641;48.904;9.126;2023-03-21T18:44:40;98413.78;;;18.14;46.44
60820;BME280;46641;48.904;9.126;2023-03-21T18:49:34;98428.03;;;18.13;46.80
60820;BME280;46641;48.904;9.126;2023-03-21T18:54:25;98433.75;;;18.10;47.11
60820;BME280;46641;48.904;9.126;2023-03-21T18:59:18;98410.47;;;18.06;47.84
60820;BME280;46641;48.904;9.126;2023-03-21T19:04:10;98432.69;;;18.05;47.55
60820;BME280;46641;48.904;9.126;2023-03-21T19:09:01;98409.25;;;18.02;47.55
60820;BME280;46641;48.904;9.126;2023-03-21T19:13:51;98408.63;;;17.99;47.14
60820;BME280;46641;48.904;9.126;2023-03-21T19:18:42;98413.31;;;17.97;47.04
60820;BME280;46641;48.904;9.126;2023-03-21T19:23:32;98434.69;;;17.96;47.16
60820;BME280;46641;48.904;9.126;2023-03-21T19:28:23;98430.81;;;17.92;47.69
60820;BME280;46641;48.904;9.126;2023-03-21T19:33:13;98425.50;;;17.92;47.88
60820;BME280;46641;48.904;9.126;2023-03-21T19:38:03;98417.31;;;17.87;48.10
60820;BME280;46641;48.904;9.126;2023-03-21T19:42:54;98414.69;;;17.87;47.94
60820;BME280;46641;48.904;9.126;2023-03-21T19:47:44;98407.13;;;17.84;47.68
60820;BME280;46641;48.904;9.126;2023-03-21T19:52:35;98404.69;;;17.82;47.36
60820;BME280;46641;48.904;9.126;2023-03-21T19:57:26;98398.97;;;17.79;47.39
60820;BME280;46641;48.904;9.126;2023-03-21T20:02:16;98400.97;;;17.77;47.38
60820;BME280;46641;48.904;9.126;2023-03-21T20:07:07;98394.41;;;17.72;47.40
60820;BME280;46641;48.904;9.126;2023-03-21T20:11:57;98395.63;;;17.70;47.17
60820;BME280;46641;48.904;9.126;2023-03-21T20:16:49;98402.97;;;17.68;47.27
60820;BME280;46641;48.904;9.126;2023-03-21T20:21:40;98409.63;;;17.64;47.86
60820;BME280;46641;48.904;9.126;2023-03-21T20:26:30;98406.19;;;17.63;47.99
60820;BME280;46641;48.904;9.126;2023-03-21T20:31:22;98413.69;;;17.60;48.00
60820;BME280;46641;48.904;9.126;2023-03-21T20:36:13;98419.19;;;17.58;48.03
60820;BME280;46641;48.904;9.126;2023-03-21T20:41:04;98414.28;;;17.55;48.00
60820;BME280;46641;48.904;9.126;2023-03-21T20:46:03;98420.78;;;17.52;47.76
60820;BME280;46641;48.904;9.126;2023-03-21T20:51:01;98423.81;;;17.49;47.95
60820;BME280;46641;48.904;9.126;2023-03-21T20:55:52;98426.03;;;17.46;48.10
60820;BME280;46641;48.904;9.126;2023-03-21T21:00:42;98435.97;;;17.44;48.56
60820;BME280;46641;48.904;9.126;2023-03-21T21:05:33;98431.28;;;17.39;48.61
60820;BME280;46641;48.904;9.126;2023-03-21T21:10:27;98426.16;;;17.38;48.45
60820;BME280;46641;48.904;9.126;2023-03-21T21:15:17;98422.91;;;17.36;48.26
60820;BME280;46641;48.904;9.126;2023-03-21T21:20:09;98425.09;;;17.32;48.55
60820;BME280;46641;48.904;9.126;2023-03-21T21:25:05;98416.75;;;17.28;48.64
60820;BME280;46641;48.904;9.126;2023-03-21T21:29:56;98416.13;;;17.26;48.59
60820;BME280;46641;48.904;9.126;2023-03-21T21:34:46;98417.31;;;17.24;48.29
60820;BME280;46641;48.904;9.126;2023-03-21T21:39:37;98418.72;;;17.20;48.82
60820;BME280;46641;48.904;9.126;2023-03-21T21:44:27;98415.66;;;17.16;48.65
60820;BME280;46641;48.904;9.126;2023-03-21T21:49:17;98405.47;;;17.13;48.49
60820;BME280;46641;48.904;9.126;2023-03-21T21:54:08;98404.19;;;17.09;48.63
60820;BME280;46641;48.904;9.126;2023-03-21T21:58:59;98400.94;;;17.07;48.62
60820;BME280;46641;48.904;9.126;2023-03-21T22:03:52;98407.41;;;17.04;48.86
60820;BME280;46641;48.904;9.126;2023-03-21T22:08:46;98409.63;;;17.01;48.62
60820;BME280;46641;48.904;9.126;2023-03-21T22:13:36;98403.91;;;16.97;48.95
60820;BME280;46641;48.904;9.126;2023-03-21T22:18:27;98411.41;;;16.94;48.85
60820;BME280;46641;48.904;9.126;2023-03-21T22:23:17;98417.06;;;16.91;48.88
60820;BME280;46641;48.904;9.126;2023-03-21T22:28:08;98412.34;;;16.86;48.91
60820;BME280;46641;48.904;9.126;2023-03-21T22:32:58;98412.91;;;16.81;48.89
60820;BME280;46641;48.904;9.126;2023-03-21T22:37:48;98435.88;;;16.81;48.98
60820;BME280;46641;48.904;9.126;2023-03-21T22:42:40;98439.94;;;16.77;49.16
60820;BME280;46641;48.904;9.126;2023-03-21T22:47:31;98431.69;;;16.72;49.09
60820;BME280;46641;48.904;9.126;2023-03-21T22:52:21;98446.09;;;16.69;49.35
60820;BME280;46641;48.904;9.126;2023-03-21T22:57:11;98443.03;;;16.66;49.52
60820;BME280;46641;48.904;9.126;2023-03-21T23:02:02;98441.56;;;16.63;49.57
60820;BME280;46641;48.904;9.126;2023-03-21T23:06:53;98440.09;;;16.60;49.54
60820;BME280;46641;48.904;9.126;2023-03-21T23:11:43;98424.84;;;16.56;49.70
60820;BME280;46641;48.904;9.126;2023-03-21T23:16:38;98434.75;;;16.54;49.60
60820;BME280;46641;48.904;9.126;2023-03-21T23:21:28;98433.50;;;16.50;49.58
60820;BME280;46641;48.904;9.126;2023-03-21T23:26:21;98433.88;;;16.47;49.70
60820;BME280;46641;48.904;9.126;2023-03-21T23:31:15;98436.88;;;16.44;49.77
60820;BME280;46641;48.904;9.126;2023-03-21T23:36:06;98428.72;;;16.39;49.68
60820;BME280;46641;48.904;9.126;2023-03-21T23:40:57;98421.78;;;16.38;49.69
60820;BME280;46641;48.904;9.126;2023-03-21T23:45:50;98422.16;;;16.34;49.56
60820;BME280;46641;48.904;9.126;2023-03-21T23:50:41;98422.56;;;16.31;49.56
60820;BME280;46641;48.904;9.126;2023-03-21T23:55:31;98421.28;;;16.27;49.47
